sensor_id;sensor_type;location;lat;lon;timestamp;pressure;altitude;pressure_sealevel;temperature;humidity
35892;BME280;21993;42.672;23.296;2022-08-03T00:01:15;94736.63;;;23.31;53.92
35892;BME280;21993;42.672;23.296;2022-08-03T00:03:41;94739.53;;;23.30;54.16
35892;BME280;21993;42.672;23.296;2022-08-03T00:06:07;94730.69;;;23.23;54.52
35892;BME280;21993;42.672;23.296;2022-08-03T00:08:33;94735.63;;;23.19;54.53
35892;BME280;21993;42.672;23.296;2022-08-03T00:10:58;94743.47;;;23.21;54.48
35892;BME280;21993;42.672;23.296;2022-08-03T00:13:24;94739.31;;;23.25;54.19
35892;BME280;21993;42.672;23.296;2022-08-03T00:15:50;94736.25;;;23.21;54.59
35892;BME280;21993;42.672;23.296;2022-08-03T00:18:16;94732.56;;;23.16;54.73
35892;BME280;21993;42.672;23.296;2022-08-03T00:20:42;94740.59;;;23.16;54.67
35892;BME280;21993;42.672;23.296;2022-08-03T00:23:07;94737.16;;;23.02;55.22
35892;BME280;21993;42.672;23.296;2022-08-03T00:25:36;94736.53;;;23.00;55.15
35892;BME280;21993;42.672;23.296;2022-08-03T00:28:03;94727.25;;;23.02;55.07
35892;BME280;21993;42.672;23.296;2022-08-03T00:30:29;94736.97;;;22.97;55.20
35892;BME280;21993;42.672;23.296;2022-08-03T00:32:55;94734.69;;;22.94;55.14
35892;BME280;21993;42.672;23.296;2022-08-03T00:35:20;94736.78;;;22.92;55.30
35892;BME280;21993;42.672;23.296;2022-08-03T00:37:46;94731.00;;;22.82;55.34
35892;BME280;21993;42.672;23.296;2022-08-03T00:40:12;94722.59;;;22.85;55.17
35892;BME280;21993;42.672;23.296;2022-08-03T00:42:49;94725.69;;;22.88;54.63
35892;BME280;21993;42.672;23.296;2022-08-03T00:45:16;94728.31;;;22.95;54.51
35892;BME280;21993;42.672;23.296;2022-08-03T00:47:42;94735.13;;;22.97;54.11
35892;BME280;21993;42.672;23.296;2022-08-03T00:50:08;94731.63;;;22.97;54.56
35892;BME280;21993;42.672;23.296;2022-08-03T00:52:34;94732.25;;;22.86;54.74
35892;BME280;21993;42.672;23.296;2022-08-03T00:55:00;94727.50;;;22.81;55.09
35892;BME280;21993;42.672;23.296;2022-08-03T00:57:27;94728.13;;;22.76;55.56
35892;BME280;21993;42.672;23.296;2022-08-03T00:59:54;94728.13;;;22.76;55.53
35892;BME280;21993;42.672;23.296;2022-08-03T01:02:20;94734.34;;;22.64;55.38
35892;BME280;21993;42.672;23.296;2022-08-03T01:04:45;94730.44;;;22.60;55.86
35892;BME280;21993;42.672;23.296;2022-08-03T01:07:26;94729.81;;;22.64;55.55
35892;BME280;21993;42.672;23.296;2022-08-03T01:10:27;94726.50;;;22.69;55.32
35892;BME280;21993;42.672;23.296;2022-08-03T01:13:16;94722.38;;;22.73;55.51
35892;BME280;21993;42.672;23.296;2022-08-03T01:18:33;94718.31;;;22.64;55.98
35892;BME280;21993;42.672;23.296;2022-08-03T01:21:03;94721.59;;;22.59;55.97
35892;BME280;21993;42.672;23.296;2022-08-03T01:29:55;94711.09;;;22.58;56.24
35892;BME280;21993;42.672;23.296;2022-08-03T01:32:27;94718.91;;;22.53;56.61
35892;BME280;21993;42.672;23.296;2022-08-03T01:35:00;94726.13;;;22.52;56.45
35892;BME280;21993;42.672;23.296;2022-08-03T01:37:35;94737.25;;;22.49;56.61
35892;BME280;21993;42.672;23.296;2022-08-03T01:40:04;94725.53;;;22.43;56.88
35892;BME280;21993;42.672;23.296;2022-08-03T01:42:31;94724.53;;;22.38;57.02
35892;BME280;21993;42.672;23.296;2022-08-03T01:44:59;94727.38;;;22.36;56.45
35892;BME280;21993;42.672;23.296;2022-08-03T01:47:26;94731.91;;;22.36;56.11
35892;BME280;21993;42.672;23.296;2022-08-03T01:49:54;94729.25;;;22.29;56.00
35892;BME280;21993;42.672;23.296;2022-08-03T01:52:21;94723.28;;;22.34;56.10
35892;BME280;21993;42.672;23.296;2022-08-03T01:54:49;94724.31;;;22.33;55.69
35892;BME280;21993;42.672;23.296;2022-08-03T01:57:16;94720.81;;;22.32;55.64
35892;BME280;21993;42.672;23.296;2022-08-03T01:59:44;94728.22;;;22.30;56.09
35892;BME280;21993;42.672;23.296;2022-08-03T02:02:15;94735.00;;;22.26;56.36
35892;BME280;21993;42.672;23.296;2022-08-03T02:04:46;94731.31;;;22.27;56.19
35892;BME280;21993;42.672;23.296;2022-08-03T02:07:13;94732.34;;;22.19;56.86
35892;BME280;21993;42.672;23.296;2022-08-03T02:09:39;94731.53;;;22.12;57.05
35892;BME280;21993;42.672;23.296;2022-08-03T02:12:08;94729.03;;;22.11;57.25
35892;BME280;21993;42.672;23.296;2022-08-03T02:14:35;94725.72;;;22.02;58.06
35892;BME280;21993;42.672;23.296;2022-08-03T02:17:01;94725.72;;;22.02;57.91
35892;BME280;21993;42.672;23.296;2022-08-03T02:19:27;94723.06;;;21.96;57.12
35892;BME280;21993;42.672;23.296;2022-08-03T02:21:55;94729.63;;;22.00;57.52
35892;BME280;21993;42.672;23.296;2022-08-03T02:24:22;94728.00;;;21.99;57.35
35892;BME280;21993;42.672;23.296;2022-08-03T02:26:48;94731.09;;;21.96;57.75
35892;BME280;21993;42.672;23.296;2022-08-03T02:29:23;94717.72;;;21.82;58.06
35892;BME280;21993;42.672;23.296;2022-08-03T02:31:50;94718.75;;;21.81;57.99
35892;BME280;21993;42.672;23.296;2022-08-03T02:34:17;94726.56;;;21.83;57.76
35892;BME280;21993;42.672;23.296;2022-08-03T02:36:46;94721.84;;;21.78;57.87
35892;BME280;21993;42.672;23.296;2022-08-03T02:39:16;94720.81;;;21.79;58.47
35892;BME280;21993;42.672;23.296;2022-08-03T02:41:53;94725.09;;;21.74;58.09
35892;BME280;21993;42.672;23.296;2022-08-03T02:44:27;94719.94;;;21.66;58.01
35892;BME280;21993;42.672;23.296;2022-08-03T02:47:12;94718.53;;;21.70;58.13
35892;BME280;21993;42.672;23.296;2022-08-03T02:49:40;94715.88;;;21.70;58.35
35892;BME280;21993;42.672;23.296;2022-08-03T02:52:08;94718.72;;;21.68;57.79
35892;BME280;21993;42.672;23.296;2022-08-03T02:54:37;94714.84;;;21.71;57.25
35892;BME280;21993;42.672;23.296;2022-08-03T02:57:06;94716.25;;;21.67;57.68
35892;BME280;21993;42.672;23.296;2022-08-03T02:59:33;94721.38;;;21.68;57.52
35892;BME280;21993;42.672;23.296;2022-08-03T03:02:00;94723.44;;;21.66;58.48
35892;BME280;21993;42.672;23.296;2022-08-03T03:04:28;94734.34;;;21.64;58.11
35892;BME280;21993;42.672;23.296;2022-08-03T03:06:55;94723.84;;;21.56;58.37
35892;BME280;21993;42.672;23.296;2022-08-03T03:09:21;94728.56;;;21.48;59.46
35892;BME280;21993;42.672;23.296;2022-08-03T03:11:49;94731.00;;;21.49;59.44
35892;BME280;21993;42.672;23.296;2022-08-03T03:14:16;94734.31;;;21.45;59.30
35892;BME280;21993;42.672;23.296;2022-08-03T03:16:44;94744.56;;;21.48;59.38
35892;BME280;21993;42.672;23.296;2022-08-03T03:19:12;94749.28;;;21.39;59.34
35892;BME280;21993;42.672;23.296;2022-08-03T03:21:38;94749.06;;;21.41;59.68
35892;BME280;21993;42.672;23.296;2022-08-03T03:24:06;94760.75;;;21.33;59.49
35892;BME280;21993;42.672;23.296;2022-08-03T03:26:33;94752.34;;;21.29;59.29
35892;BME280;21993;42.672;23.296;2022-08-03T03:29:00;94758.88;;;21.27;60.07
35892;BME280;21993;42.672;23.296;2022-08-03T03:31:26;94758.66;;;21.22;60.07
35892;BME280;21993;42.672;23.296;2022-08-03T03:33:51;94760.50;;;21.21;59.65
35892;BME280;21993;42.672;23.296;2022-08-03T03:36:17;94763.38;;;21.20;59.73
35892;BME280;21993;42.672;23.296;2022-08-03T03:38:43;94764.38;;;21.19;59.75
35892;BME280;21993;42.672;23.296;2022-08-03T03:41:09;94765.59;;;21.16;59.91
35892;BME280;21993;42.672;23.296;2022-08-03T03:43:34;94769.31;;;21.22;60.34
35892;BME280;21993;42.672;23.296;2022-08-03T03:46:00;94769.28;;;21.15;60.31
35892;BME280;21993;42.672;23.296;2022-08-03T03:48:26;94774.00;;;21.13;59.92
35892;BME280;21993;42.672;23.296;2022-08-03T03:50:52;94768.25;;;21.16;59.99
35892;BME280;21993;42.672;23.296;2022-08-03T03:53:19;94768.47;;;21.15;59.79
35892;BME280;21993;42.672;23.296;2022-08-03T03:55:44;94772.81;;;21.22;60.39
35892;BME280;21993;42.672;23.296;2022-08-03T03:58:10;94767.34;;;21.30;60.42
35892;BME280;21993;42.672;23.296;2022-08-03T04:00:35;94780.22;;;21.20;60.94
35892;BME280;21993;42.672;23.296;2022-08-03T04:03:01;94773.22;;;21.26;59.99
35892;BME280;21993;42.672;23.296;2022-08-03T04:05:26;94774.31;;;21.31;60.02
35892;BME280;21993;42.672;23.296;2022-08-03T04:08:17;94762.41;;;21.27;60.28
35892;BME280;21993;42.672;23.296;2022-08-03T04:13:42;94765.50;;;21.38;60.40
35892;BME280;21993;42.672;23.296;2022-08-03T04:16:12;94771.69;;;21.38;60.46
35892;BME280;21993;42.672;23.296;2022-08-03T04:18:40;94767.97;;;21.39;60.21
35892;BME280;21993;42.672;23.296;2022-08-03T04:21:08;94768.97;;;21.31;60.45
35892;BME280;21993;42.672;23.296;2022-08-03T04:23:38;94769.81;;;21.32;61.06
35892;BME280;21993;42.672;23.296;2022-08-03T04:26:08;94765.91;;;21.41;60.91
35892;BME280;21993;42.672;23.296;2022-08-03T04:28:38;94764.91;;;21.42;60.14
35892;BME280;21993;42.672;23.296;2022-08-03T04:31:05;94768.81;;;21.46;60.07
35892;BME280;21993;42.672;23.296;2022-08-03T04:33:33;94763.50;;;21.46;59.49
35892;BME280;21993;42.672;23.296;2022-08-03T04:36:01;94772.53;;;21.45;59.91
35892;BME280;21993;42.672;23.296;2022-08-03T04:38:30;94778.47;;;21.41;59.81
35892;BME280;21993;42.672;23.296;2022-08-03T04:40:58;94774.38;;;21.45;60.25
35892;BME280;21993;42.672;23.296;2022-08-03T04:43:24;94772.13;;;21.55;59.91
35892;BME280;21993;42.672;23.296;2022-08-03T04:45:51;94770.91;;;21.57;59.45
35892;BME280;21993;42.672;23.296;2022-08-03T04:48:18;94778.06;;;21.50;60.07
35892;BME280;21993;42.672;23.296;2022-08-03T04:50:45;94786.91;;;21.51;59.96
35892;BME280;21993;42.672;23.296;2022-08-03T04:53:12;94781.59;;;21.57;60.14
35892;BME280;21993;42.672;23.296;2022-08-03T04:55:37;94785.06;;;21.45;60.66
35892;BME280;21993;42.672;23.296;2022-08-03T04:58:03;94786.09;;;21.50;60.66
35892;BME280;21993;42.672;23.296;2022-08-03T05:00:29;94793.50;;;21.55;60.77
35892;BME280;21993;42.672;23.296;2022-08-03T05:02:55;94797.41;;;21.59;60.16
35892;BME280;21993;42.672;23.296;2022-08-03T05:05:21;94799.09;;;21.67;59.67
35892;BME280;21993;42.672;23.296;2022-08-03T05:07:46;94791.06;;;21.67;59.94
35892;BME280;21993;42.672;23.296;2022-08-03T05:10:13;94799.25;;;21.58;60.52
35892;BME280;21993;42.672;23.296;2022-08-03T05:12:39;94807.09;;;21.67;60.20
35892;BME280;21993;42.672;23.296;2022-08-03T05:15:05;94797.25;;;21.74;59.58
35892;BME280;21993;42.672;23.296;2022-08-03T05:17:30;94804.69;;;21.91;59.25
35892;BME280;21993;42.672;23.296;2022-08-03T05:19:58;94810.66;;;21.87;59.54
35892;BME280;21993;42.672;23.296;2022-08-03T05:22:24;94803.88;;;21.91;59.65
35892;BME280;21993;42.672;23.296;2022-08-03T05:24:49;94811.91;;;21.98;59.49
35892;BME280;21993;42.672;23.296;2022-08-03T05:27:15;94812.97;;;22.16;58.95
35892;BME280;21993;42.672;23.296;2022-08-03T05:29:48;94824.53;;;22.30;58.54
35892;BME280;21993;42.672;23.296;2022-08-03T05:32:15;94811.97;;;22.31;58.74
35892;BME280;21993;42.672;23.296;2022-08-03T05:34:41;94822.44;;;22.26;58.84
35892;BME280;21993;42.672;23.296;2022-08-03T05:37:06;94814.41;;;22.19;59.32
35892;BME280;21993;42.672;23.296;2022-08-03T05:39:32;94817.09;;;22.32;58.77
35892;BME280;21993;42.672;23.296;2022-08-03T05:41:58;94818.34;;;22.43;58.18
35892;BME280;21993;42.672;23.296;2022-08-03T05:44:24;94822.25;;;22.47;58.69
35892;BME280;21993;42.672;23.296;2022-08-03T05:46:50;94831.72;;;22.43;58.68
35892;BME280;21993;42.672;23.296;2022-08-03T05:49:16;94821.63;;;22.71;57.82
35892;BME280;21993;42.672;23.296;2022-08-03T05:51:41;94826.78;;;22.66;57.43
35892;BME280;21993;42.672;23.296;2022-08-03T05:54:07;94825.75;;;22.61;58.13
35892;BME280;21993;42.672;23.296;2022-08-03T05:56:32;94825.31;;;22.84;57.57
35892;BME280;21993;42.672;23.296;2022-08-03T05:58:58;94819.13;;;23.03;56.27
35892;BME280;21993;42.672;23.296;2022-08-03T06:01:23;94823.84;;;23.14;55.58
35892;BME280;21993;42.672;23.296;2022-08-03T06:03:49;94818.91;;;23.11;56.25
35892;BME280;21993;42.672;23.296;2022-08-03T06:06:16;94832.28;;;23.11;56.18
35892;BME280;21993;42.672;23.296;2022-08-03T06:08:43;94828.81;;;23.04;57.32
35892;BME280;21993;42.672;23.296;2022-08-03T06:11:09;94833.31;;;23.23;55.64
35892;BME280;21993;42.672;23.296;2022-08-03T06:13:35;94829.16;;;23.27;55.66
35892;BME280;21993;42.672;23.296;2022-08-03T06:16:01;94832.00;;;23.39;55.55
35892;BME280;21993;42.672;23.296;2022-08-03T06:18:26;94830.91;;;23.60;54.06
35892;BME280;21993;42.672;23.296;2022-08-03T06:20:52;94840.22;;;23.51;54.50
35892;BME280;21993;42.672;23.296;2022-08-03T06:23:18;94835.50;;;23.46;54.70
35892;BME280;21993;42.672;23.296;2022-08-03T06:25:43;94833.81;;;23.52;54.49
35892;BME280;21993;42.672;23.296;2022-08-03T06:28:09;94830.09;;;23.59;54.91
35892;BME280;21993;42.672;23.296;2022-08-03T06:30:35;94835.22;;;23.68;54.68
35892;BME280;21993;42.672;23.296;2022-08-03T06:33:00;94830.59;;;23.88;54.66
35892;BME280;21993;42.672;23.296;2022-08-03T06:35:26;94833.97;;;24.08;54.01
35892;BME280;21993;42.672;23.296;2022-08-03T06:37:52;94830.25;;;24.09;53.45
35892;BME280;21993;42.672;23.296;2022-08-03T06:40:22;94825.00;;;24.21;53.16
35892;BME280;21993;42.672;23.296;2022-08-03T06:43:01;94827.19;;;24.37;52.62
35892;BME280;21993;42.672;23.296;2022-08-03T06:45:27;94834.16;;;24.45;52.46
35892;BME280;21993;42.672;23.296;2022-08-03T06:48:19;94824.19;;;24.52;52.34
35892;BME280;21993;42.672;23.296;2022-08-03T06:50:44;94822.28;;;24.59;52.57
35892;BME280;21993;42.672;23.296;2022-08-03T06:53:10;94826.56;;;24.67;52.08
35892;BME280;21993;42.672;23.296;2022-08-03T06:55:35;94823.03;;;24.91;50.44
35892;BME280;21993;42.672;23.296;2022-08-03T06:58:01;94812.72;;;24.88;52.18
35892;BME280;21993;42.672;23.296;2022-08-03T07:00:27;94821.28;;;25.04;51.55
35892;BME280;21993;42.672;23.296;2022-08-03T07:02:53;94821.22;;;25.10;51.46
35892;BME280;21993;42.672;23.296;2022-08-03T07:05:18;94818.22;;;25.18;50.59
35892;BME280;21993;42.672;23.296;2022-08-03T07:07:44;94821.59;;;25.32;48.70
35892;BME280;21993;42.672;23.296;2022-08-03T07:10:10;94821.38;;;25.34;49.27
35892;BME280;21993;42.672;23.296;2022-08-03T07:12:36;94819.66;;;25.39;48.23
35892;BME280;21993;42.672;23.296;2022-08-03T07:15:03;94815.75;;;25.53;47.93
35892;BME280;21993;42.672;23.296;2022-08-03T07:17:30;94813.44;;;25.57;47.83
35892;BME280;21993;42.672;23.296;2022-08-03T07:19:56;94817.25;;;25.68;47.31
35892;BME280;21993;42.672;23.296;2022-08-03T07:22:23;94821.78;;;25.86;46.75
35892;BME280;21993;42.672;23.296;2022-08-03T07:24:48;94820.75;;;25.87;46.87
35892;BME280;21993;42.672;23.296;2022-08-03T07:27:15;94818.19;;;25.92;47.29
35892;BME280;21993;42.672;23.296;2022-08-03T07:29:40;94827.22;;;25.97;48.39
35892;BME280;21993;42.672;23.296;2022-08-03T07:32:06;94819.63;;;26.06;48.16
35892;BME280;21993;42.672;23.296;2022-08-03T07:34:31;94828.09;;;26.09;47.81
35892;BME280;21993;42.672;23.296;2022-08-03T07:36:57;94820.44;;;26.36;46.25
35892;BME280;21993;42.672;23.296;2022-08-03T07:39:22;94816.09;;;26.35;46.41
35892;BME280;21993;42.672;23.296;2022-08-03T07:41:48;94826.34;;;26.45;47.23
35892;BME280;21993;42.672;23.296;2022-08-03T07:44:16;94824.72;;;26.56;47.07
35892;BME280;21993;42.672;23.296;2022-08-03T07:46:42;94827.31;;;26.62;46.80
35892;BME280;21993;42.672;23.296;2022-08-03T07:49:07;94812.91;;;26.69;46.83
35892;BME280;21993;42.672;23.296;2022-08-03T07:51:33;94828.03;;;26.81;46.66
35892;BME280;21993;42.672;23.296;2022-08-03T07:53:58;94824.63;;;26.86;46.86
35892;BME280;21993;42.672;23.296;2022-08-03T07:56:25;94820.66;;;27.00;46.40
35892;BME280;21993;42.672;23.296;2022-08-03T07:58:51;94825.25;;;27.11;45.36
35892;BME280;21993;42.672;23.296;2022-08-03T08:01:16;94822.69;;;27.05;45.55
35892;BME280;21993;42.672;23.296;2022-08-03T08:03:44;94818.81;;;27.12;45.66
35892;BME280;21993;42.672;23.296;2022-08-03T08:06:10;94827.81;;;27.30;45.13
35892;BME280;21993;42.672;23.296;2022-08-03T08:08:36;94833.78;;;27.32;45.68
35892;BME280;21993;42.672;23.296;2022-08-03T08:11:02;94827.22;;;27.39;44.56
35892;BME280;21993;42.672;23.296;2022-08-03T08:13:27;94825.53;;;27.62;43.68
35892;BME280;21993;42.672;23.296;2022-08-03T08:15:53;94833.88;;;27.60;43.42
35892;BME280;21993;42.672;23.296;2022-08-03T08:18:18;94829.78;;;27.69;43.14
35892;BME280;21993;42.672;23.296;2022-08-03T08:20:44;94833.25;;;27.82;42.25
35892;BME280;21993;42.672;23.296;2022-08-03T08:23:09;94825.88;;;27.77;42.11
35892;BME280;21993;42.672;23.296;2022-08-03T08:25:35;94833.84;;;27.84;42.45
35892;BME280;21993;42.672;23.296;2022-08-03T08:28:00;94828.34;;;27.79;42.62
35892;BME280;21993;42.672;23.296;2022-08-03T08:30:27;94827.81;;;27.93;42.50
35892;BME280;21993;42.672;23.296;2022-08-03T08:32:53;94829.88;;;28.03;42.20
35892;BME280;21993;42.672;23.296;2022-08-03T08:35:19;94828.63;;;28.22;41.50
35892;BME280;21993;42.672;23.296;2022-08-03T08:37:45;94817.56;;;28.24;40.79
35892;BME280;21993;42.672;23.296;2022-08-03T08:40:11;94824.13;;;28.28;40.35
35892;BME280;21993;42.672;23.296;2022-08-03T08:42:38;94823.47;;;28.21;41.43
35892;BME280;21993;42.672;23.296;2022-08-03T08:45:05;94824.50;;;28.31;40.75
35892;BME280;21993;42.672;23.296;2022-08-03T08:47:33;94820.00;;;28.37;41.45
35892;BME280;21993;42.672;23.296;2022-08-03T08:50:01;94817.63;;;28.41;39.72
35892;BME280;21993;42.672;23.296;2022-08-03T08:52:28;94820.34;;;28.57;39.84
35892;BME280;21993;42.672;23.296;2022-08-03T08:54:55;94818.47;;;28.58;39.90
35892;BME280;21993;42.672;23.296;2022-08-03T08:57:29;94816.34;;;28.77;39.69
35892;BME280;21993;42.672;23.296;2022-08-03T08:59:58;94810.34;;;28.75;39.58
35892;BME280;21993;42.672;23.296;2022-08-03T09:02:28;94807.91;;;28.73;39.00
35892;BME280;21993;42.672;23.296;2022-08-03T09:04:54;94811.28;;;28.80;39.91
35892;BME280;21993;42.672;23.296;2022-08-03T09:07:20;94801.22;;;28.93;38.41
35892;BME280;21993;42.672;23.296;2022-08-03T09:09:45;94796.63;;;29.10;38.60
35892;BME280;21993;42.672;23.296;2022-08-03T09:12:11;94804.22;;;29.13;39.21
35892;BME280;21993;42.672;23.296;2022-08-03T09:14:36;94802.22;;;29.25;38.23
35892;BME280;21993;42.672;23.296;2022-08-03T09:17:02;94804.69;;;29.27;38.05
35892;BME280;21993;42.672;23.296;2022-08-03T09:19:29;94801.22;;;29.31;37.84
35892;BME280;21993;42.672;23.296;2022-08-03T09:22:12;94799.66;;;29.35;38.41
35892;BME280;21993;42.672;23.296;2022-08-03T09:24:53;94794.00;;;29.37;38.85
35892;BME280;21993;42.672;23.296;2022-08-03T09:27:20;94801.59;;;29.57;37.81
35892;BME280;21993;42.672;23.296;2022-08-03T09:29:53;94794.72;;;29.71;36.93
35892;BME280;21993;42.672;23.296;2022-08-03T09:32:20;94794.72;;;29.71;37.65
35892;BME280;21993;42.672;23.296;2022-08-03T09:34:48;94792.50;;;29.68;37.52
35892;BME280;21993;42.672;23.296;2022-08-03T09:37:15;94789.69;;;29.80;36.90
35892;BME280;21993;42.672;23.296;2022-08-03T09:39:41;94796.53;;;29.87;36.50
35892;BME280;21993;42.672;23.296;2022-08-03T09:44:34;94794.97;;;30.13;36.63
35892;BME280;21993;42.672;23.296;2022-08-03T09:47:01;94795.13;;;30.07;36.81
35892;BME280;21993;42.672;23.296;2022-08-03T09:49:26;94789.38;;;30.25;36.38
35892;BME280;21993;42.672;23.296;2022-08-03T09:51:53;94790.16;;;30.20;36.39
35892;BME280;21993;42.672;23.296;2022-08-03T09:54:26;94785.19;;;30.39;36.16
35892;BME280;21993;42.672;23.296;2022-08-03T09:56:52;94782.28;;;30.46;35.76
35892;BME280;21993;42.672;23.296;2022-08-03T09:59:28;94787.78;;;30.56;36.35
35892;BME280;21993;42.672;23.296;2022-08-03T10:01:56;94786.13;;;30.55;35.60
35892;BME280;21993;42.672;23.296;2022-08-03T10:04:22;94784.78;;;30.58;35.99
35892;BME280;21993;42.672;23.296;2022-08-03T10:07:06;94785.72;;;30.68;35.67
35892;BME280;21993;42.672;23.296;2022-08-03T10:09:32;94778.63;;;30.62;35.83
35892;BME280;21993;42.672;23.296;2022-08-03T10:12:07;94773.25;;;30.67;35.70
35892;BME280;21993;42.672;23.296;2022-08-03T10:14:32;94770.59;;;30.72;34.92
35892;BME280;21993;42.672;23.296;2022-08-03T10:16:58;94763.88;;;30.85;34.47
35892;BME280;21993;42.672;23.296;2022-08-03T10:19:23;94774.72;;;30.85;33.65
35892;BME280;21993;42.672;23.296;2022-08-03T10:21:55;94773.97;;;30.90;33.47
35892;BME280;21993;42.672;23.296;2022-08-03T10:24:25;94770.97;;;30.86;33.79
35892;BME280;21993;42.672;23.296;2022-08-03T10:27:15;94768.75;;;30.78;34.03
35892;BME280;21993;42.672;23.296;2022-08-03T10:29:44;94764.91;;;30.74;34.22
35892;BME280;21993;42.672;23.296;2022-08-03T10:32:33;94765.78;;;30.85;34.29
35892;BME280;21993;42.672;23.296;2022-08-03T10:35:05;94767.66;;;30.79;34.85
35892;BME280;21993;42.672;23.296;2022-08-03T10:37:33;94766.75;;;30.68;35.34
35892;BME280;21993;42.672;23.296;2022-08-03T10:40:01;94761.28;;;30.63;35.08
35892;BME280;21993;42.672;23.296;2022-08-03T10:42:28;94759.22;;;30.75;35.79
35892;BME280;21993;42.672;23.296;2022-08-03T10:45:05;94764.19;;;30.89;35.47
35892;BME280;21993;42.672;23.296;2022-08-03T10:47:32;94754.22;;;30.99;34.47
35892;BME280;21993;42.672;23.296;2022-08-03T10:49:58;94758.03;;;30.98;34.48
35892;BME280;21993;42.672;23.296;2022-08-03T10:52:25;94754.66;;;30.81;35.80
35892;BME280;21993;42.672;23.296;2022-08-03T10:54:50;94763.88;;;30.85;35.60
35892;BME280;21993;42.672;23.296;2022-08-03T11:00:15;94759.06;;;30.92;35.43
35892;BME280;21993;42.672;23.296;2022-08-03T11:03:10;94762.41;;;31.09;35.01
35892;BME280;21993;42.672;23.296;2022-08-03T11:05:40;94758.66;;;31.16;35.17
35892;BME280;21993;42.672;23.296;2022-08-03T11:10:48;94747.22;;;31.08;34.97
35892;BME280;21993;42.672;23.296;2022-08-03T11:13:16;94744.50;;;31.03;33.90
35892;BME280;21993;42.672;23.296;2022-08-03T11:15:44;94744.00;;;31.12;33.89
35892;BME280;21993;42.672;23.296;2022-08-03T11:18:11;94747.81;;;31.16;33.87
35892;BME280;21993;42.672;23.296;2022-08-03T11:23:15;94734.88;;;31.23;33.87
35892;BME280;21993;42.672;23.296;2022-08-03T11:26:17;94741.69;;;31.35;34.19
35892;BME280;21993;42.672;23.296;2022-08-03T11:28:45;94731.44;;;31.53;32.96
35892;BME280;21993;42.672;23.296;2022-08-03T11:34:11;94721.09;;;31.45;33.89
35892;BME280;21993;42.672;23.296;2022-08-03T11:39:41;94721.41;;;31.48;33.28
35892;BME280;21993;42.672;23.296;2022-08-03T11:44:58;94723.81;;;31.45;31.72
35892;BME280;21993;42.672;23.296;2022-08-03T11:47:26;94715.47;;;31.56;32.53
35892;BME280;21993;42.672;23.296;2022-08-03T11:49:57;94716.22;;;31.36;33.68
35892;BME280;21993;42.672;23.296;2022-08-03T11:52:24;94715.94;;;31.38;34.41
35892;BME280;21993;42.672;23.296;2022-08-03T11:54:51;94715.16;;;31.48;33.79
35892;BME280;21993;42.672;23.296;2022-08-03T11:57:33;94710.00;;;31.51;33.60
35892;BME280;21993;42.672;23.296;2022-08-03T11:59:58;94717.56;;;31.44;33.19
35892;BME280;21993;42.672;23.296;2022-08-03T12:02:24;94713.53;;;31.52;33.17
35892;BME280;21993;42.672;23.296;2022-08-03T12:04:50;94716.22;;;31.42;32.88
35892;BME280;21993;42.672;23.296;2022-08-03T12:07:16;94711.59;;;31.37;32.84
35892;BME280;21993;42.672;23.296;2022-08-03T12:09:42;94711.34;;;31.44;32.91
35892;BME280;21993;42.672;23.296;2022-08-03T12:12:08;94714.59;;;31.41;33.59
35892;BME280;21993;42.672;23.296;2022-08-03T12:14:34;94705.06;;;31.33;33.87
35892;BME280;21993;42.672;23.296;2022-08-03T12:16:59;94701.66;;;31.10;33.38
35892;BME280;21993;42.672;23.296;2022-08-03T12:19:25;94704.41;;;31.16;34.10
35892;BME280;21993;42.672;23.296;2022-08-03T12:21:50;94706.03;;;31.17;33.91
35892;BME280;21993;42.672;23.296;2022-08-03T12:24:16;94703.31;;;31.12;34.08
35892;BME280;21993;42.672;23.296;2022-08-03T12:26:51;94698.13;;;31.10;34.10
35892;BME280;21993;42.672;23.296;2022-08-03T12:29:17;94707.94;;;31.16;34.44
35892;BME280;21993;42.672;23.296;2022-08-03T12:31:43;94704.69;;;31.19;34.13
35892;BME280;21993;42.672;23.296;2022-08-03T12:34:09;94699.25;;;31.14;34.75
35892;BME280;21993;42.672;23.296;2022-08-03T12:36:35;94694.88;;;31.08;35.02
35892;BME280;21993;42.672;23.296;2022-08-03T12:39:07;94696.25;;;31.10;35.17
35892;BME280;21993;42.672;23.296;2022-08-03T12:41:38;94690.78;;;31.00;34.36
35892;BME280;21993;42.672;23.296;2022-08-03T12:44:06;94696.19;;;31.00;34.81
35892;BME280;21993;42.672;23.296;2022-08-03T12:46:37;94696.13;;;30.90;35.00
35892;BME280;21993;42.672;23.296;2022-08-03T12:49:09;94689.69;;;31.01;35.39
35892;BME280;21993;42.672;23.296;2022-08-03T12:54:09;94694.88;;;31.03;35.30
35892;BME280;21993;42.672;23.296;2022-08-03T12:56:59;94691.31;;;31.02;35.39
35892;BME280;21993;42.672;23.296;2022-08-03T12:59:27;94689.13;;;30.99;34.97
35892;BME280;21993;42.672;23.296;2022-08-03T13:05:14;94683.13;;;30.87;34.71
35892;BME280;21993;42.672;23.296;2022-08-03T13:07:44;94675.53;;;30.89;34.36
35892;BME280;21993;42.672;23.296;2022-08-03T13:10:11;94673.09;;;30.88;34.91
35892;BME280;21993;42.672;23.296;2022-08-03T13:12:47;94676.91;;;30.92;34.69
35892;BME280;21993;42.672;23.296;2022-08-03T13:15:14;94665.78;;;30.88;34.97
35892;BME280;21993;42.672;23.296;2022-08-03T13:17:39;94672.00;;;30.89;35.84
35892;BME280;21993;42.672;23.296;2022-08-03T13:20:05;94667.09;;;30.86;35.67
35892;BME280;21993;42.672;23.296;2022-08-03T13:22:31;94670.66;;;30.91;36.11
35892;BME280;21993;42.672;23.296;2022-08-03T13:24:58;94672.59;;;30.96;35.06
35892;BME280;21993;42.672;23.296;2022-08-03T13:27:26;94668.56;;;31.08;35.70
35892;BME280;21993;42.672;23.296;2022-08-03T13:29:52;94669.63;;;30.97;36.07
35892;BME280;21993;42.672;23.296;2022-08-03T13:32:19;94671.28;;;31.03;35.96